createdAt,value
2022-10-12T00:00:07.070Z,12.64
2022-10-12T00:02:34.711Z,12.71
2022-10-12T00:04:57.264Z,12.72
2022-10-12T00:07:19.919Z,12.68
2022-10-12T00:09:42.502Z,12.74
2022-10-12T00:12:05.603Z,12.61
2022-10-12T00:14:28.236Z,12.54
2022-10-12T00:16:50.895Z,12.40
2022-10-12T00:19:14.099Z,12.33
2022-10-12T00:21:38.815Z,12.30
2022-10-12T00:24:01.895Z,12.21
2022-10-12T00:26:25.421Z,12.17
2022-10-12T00:28:48.874Z,12.16
2022-10-12T00:31:19.849Z,12.07
2022-10-12T00:33:42.692Z,11.96
2022-10-12T00:36:34.197Z,11.94
2022-10-12T00:38:57.149Z,12.00
2022-10-12T00:41:22.923Z,11.99
2022-10-12T00:43:47.888Z,11.96
2022-10-12T00:46:37.559Z,11.97
2022-10-12T00:49:10.446Z,12.00
2022-10-12T00:51:33.785Z,11.97
2022-10-12T00:54:05.176Z,11.92
2022-10-12T00:56:32.316Z,11.89
2022-10-12T00:58:57.087Z,11.82
2022-10-12T01:01:19.978Z,11.71
2022-10-12T01:03:43.043Z,11.57
2022-10-12T01:06:06.928Z,11.58
2022-10-12T01:08:30.649Z,11.44
2022-10-12T01:10:53.709Z,11.38
2022-10-12T01:13:16.654Z,11.37
2022-10-12T01:16:17.265Z,11.39
2022-10-12T01:19:14.312Z,11.42
2022-10-12T01:21:44.404Z,11.42
2022-10-12T01:24:33.152Z,11.44
2022-10-12T01:27:08.079Z,11.54
2022-10-12T01:29:53.215Z,11.52
2022-10-12T01:32:27.960Z,11.57
2022-10-12T01:35:02.230Z,11.58
2022-10-12T01:37:31.581Z,11.61
2022-10-12T01:39:57.259Z,11.65
2022-10-12T01:42:37.139Z,11.57
2022-10-12T01:45:12.180Z,11.57
2022-10-12T01:47:38.003Z,11.57
2022-10-12T01:50:03.137Z,11.57
2022-10-12T01:52:32.123Z,11.54
2022-10-12T01:55:25.455Z,11.59
2022-10-12T01:58:16.567Z,11.64
2022-10-12T02:00:52.685Z,11.61
2022-10-12T02:03:15.266Z,11.62
2022-10-12T02:05:37.735Z,11.61
2022-10-12T02:08:13.060Z,11.65
2022-10-12T02:10:40.908Z,11.69
2022-10-12T02:13:07.445Z,11.65
2022-10-12T02:15:31.952Z,11.66
2022-10-12T02:17:56.775Z,11.65
2022-10-12T02:20:24.039Z,11.69
2022-10-12T02:22:57.639Z,11.68
2022-10-12T02:25:23.886Z,11.71
2022-10-12T02:27:53.162Z,11.72
2022-10-12T02:30:19.240Z,11.75
2022-10-12T02:33:03.400Z,11.71
2022-10-12T02:35:34.997Z,11.75
2022-10-12T02:38:03.484Z,11.72
2022-10-12T02:40:26.090Z,11.81
2022-10-12T02:43:09.761Z,11.78
2022-10-12T02:45:34.560Z,11.76
2022-10-12T02:47:58.784Z,11.69
2022-10-12T02:50:23.380Z,11.74
2022-10-12T02:52:46.912Z,11.74
2022-10-12T02:55:09.521Z,11.66
2022-10-12T02:57:32.017Z,11.65
2022-10-12T02:59:54.743Z,11.69
2022-10-12T03:02:17.256Z,11.75
2022-10-12T03:04:39.860Z,11.71
2022-10-12T03:07:02.496Z,11.72
2022-10-12T03:09:25.192Z,11.76
2022-10-12T03:11:47.602Z,11.76
2022-10-12T03:14:15.051Z,11.81
2022-10-12T03:16:37.626Z,11.75
2022-10-12T03:19:00.310Z,11.79
2022-10-12T03:21:22.976Z,11.74
2022-10-12T03:23:47.007Z,11.72
2022-10-12T03:26:10.190Z,11.79
2022-10-12T03:28:33.628Z,11.79
2022-10-12T03:30:56.466Z,11.85
2022-10-12T03:33:19.512Z,11.81
2022-10-12T03:35:45.468Z,11.76
2022-10-12T03:38:08.580Z,11.85
2022-10-12T03:40:31.452Z,11.87
2022-10-12T03:42:54.068Z,11.85
2022-10-12T03:45:16.764Z,11.81
2022-10-12T03:47:39.897Z,11.86
2022-10-12T03:50:03.602Z,11.83
2022-10-12T03:52:28.039Z,11.87
2022-10-12T03:54:51.255Z,11.81
2022-10-12T03:57:13.918Z,11.69
2022-10-12T03:59:36.739Z,11.79
2022-10-12T04:01:59.343Z,11.75
2022-10-12T04:04:21.792Z,11.72
2022-10-12T04:06:44.651Z,11.71
2022-10-12T04:09:07.266Z,11.69
2022-10-12T04:11:29.832Z,11.72
2022-10-12T04:13:54.988Z,11.66
2022-10-12T04:16:18.755Z,11.66
2022-10-12T04:18:41.307Z,11.62
2022-10-12T04:21:15.972Z,11.66
2022-10-12T04:23:38.547Z,11.58
2022-10-12T04:26:01.109Z,11.54
2022-10-12T04:28:23.870Z,11.54
2022-10-12T04:30:46.840Z,11.45
2022-10-12T04:33:09.525Z,11.45
2022-10-12T04:35:32.396Z,11.45
2022-10-12T04:37:54.844Z,11.42
2022-10-12T04:40:17.427Z,11.44
2022-10-12T04:42:39.903Z,11.41
2022-10-12T04:45:02.376Z,11.45
2022-10-12T04:47:25.421Z,11.42
2022-10-12T04:49:48.005Z,11.42
2022-10-12T04:52:10.650Z,11.38
2022-10-12T04:54:33.666Z,11.35
2022-10-12T04:56:56.242Z,11.34
2022-10-12T04:59:18.880Z,11.32
2022-10-12T05:01:42.194Z,11.32
2022-10-12T05:04:04.953Z,11.23
2022-10-12T05:06:27.834Z,11.27
2022-10-12T05:08:51.959Z,11.31
2022-10-12T05:11:23.464Z,11.31
2022-10-12T05:13:49.179Z,11.32
2022-10-12T05:16:14.578Z,11.35
2022-10-12T05:18:37.183Z,11.39
2022-10-12T05:20:59.894Z,11.45
2022-10-12T05:23:22.568Z,11.51
2022-10-12T05:25:45.190Z,11.59
2022-10-12T05:28:07.911Z,11.72
2022-10-12T05:30:30.940Z,11.92
2022-10-12T05:32:53.831Z,12.02
2022-10-12T05:35:16.497Z,12.10
2022-10-12T05:37:39.514Z,12.27
2022-10-12T05:40:02.887Z,12.44
2022-10-12T05:42:26.206Z,12.61
2022-10-12T05:44:48.996Z,12.75
2022-10-12T05:47:11.831Z,12.89
2022-10-12T05:49:36.027Z,12.96
2022-10-12T05:51:59.325Z,13.16
2022-10-12T05:54:22.363Z,13.44
2022-10-12T05:56:45.312Z,13.68
2022-10-12T05:59:11.044Z,13.84
2022-10-12T06:01:34.528Z,13.89
2022-10-12T06:03:57.920Z,14.06
2022-10-12T06:06:21.779Z,14.12
2022-10-12T06:08:44.628Z,14.39
2022-10-12T06:11:07.666Z,14.44
2022-10-12T06:13:30.707Z,14.71
2022-10-12T06:15:53.857Z,14.83
2022-10-12T06:18:18.300Z,14.97
2022-10-12T06:20:41.500Z,15.11
2022-10-12T06:23:04.732Z,15.24
2022-10-12T06:25:27.323Z,15.38
2022-10-12T06:27:49.986Z,15.21
2022-10-12T06:30:13.946Z,15.40
2022-10-12T06:32:36.942Z,15.47
2022-10-12T06:34:59.926Z,15.76
2022-10-12T06:37:47.956Z,16.01
2022-10-12T06:40:05.837Z,15.90
2022-10-12T06:42:28.409Z,16.25
2022-10-12T06:44:51.181Z,16.32
2022-10-12T06:47:13.805Z,16.36
2022-10-12T06:49:36.462Z,16.36
2022-10-12T06:51:59.022Z,16.36
2022-10-12T06:54:21.964Z,16.00
2022-10-12T06:56:44.887Z,15.90
2022-10-12T06:59:07.621Z,15.79
2022-10-12T07:01:30.523Z,15.87
2022-10-12T07:03:56.019Z,15.57
2022-10-12T07:06:22.518Z,15.29
2022-10-12T07:08:45.370Z,15.33
2022-10-12T07:11:10.381Z,15.28
2022-10-12T07:13:33.855Z,15.69
2022-10-12T07:15:56.463Z,15.62
2022-10-12T07:18:19.295Z,15.74
2022-10-12T07:20:42.457Z,15.67
2022-10-12T07:23:05.145Z,15.79
2022-10-12T07:25:27.797Z,15.76
2022-10-12T07:27:50.617Z,15.74
2022-10-12T07:30:13.669Z,15.89
2022-10-12T07:32:36.372Z,16.41
2022-10-12T07:34:59.158Z,16.17
2022-10-12T07:37:22.192Z,16.38
2022-10-12T07:39:45.595Z,16.52
2022-10-12T07:42:08.550Z,16.51
2022-10-12T07:44:31.718Z,16.44
2022-10-12T07:46:54.566Z,16.44
2022-10-12T07:49:17.424Z,16.19
2022-10-12T07:51:40.928Z,16.31
2022-10-12T07:54:03.755Z,16.51
2022-10-12T07:56:26.957Z,16.51
2022-10-12T07:58:51.646Z,16.55
2022-10-12T08:01:14.546Z,16.90
2022-10-12T08:03:37.259Z,16.91
2022-10-12T08:06:00.420Z,16.93
2022-10-12T08:08:22.970Z,16.94
2022-10-12T08:10:45.687Z,16.93
2022-10-12T08:13:08.201Z,17.15
2022-10-12T08:15:30.888Z,16.94
2022-10-12T08:17:53.738Z,17.03
2022-10-12T08:20:16.594Z,17.14
2022-10-12T08:22:39.227Z,17.38
2022-10-12T08:25:01.828Z,17.56
2022-10-12T08:27:24.484Z,17.49
2022-10-12T08:29:47.317Z,17.62
2022-10-12T08:32:11.075Z,17.69
2022-10-12T08:34:33.834Z,17.93
2022-10-12T08:36:56.587Z,17.80
2022-10-12T08:39:21.272Z,17.62
2022-10-12T08:42:06.872Z,17.55
2022-10-12T08:44:52.498Z,17.73
2022-10-12T08:47:17.821Z,17.97
2022-10-12T08:49:44.151Z,18.13
2022-10-12T08:52:26.999Z,18.09
2022-10-12T08:54:49.861Z,18.36
2022-10-12T08:57:19.653Z,18.72
2022-10-12T08:59:42.754Z,18.57
2022-10-12T09:02:40.770Z,18.75
2022-10-12T09:05:08.728Z,18.49
2022-10-12T09:07:46.220Z,18.81
2022-10-12T09:10:43.900Z,18.93
2022-10-12T09:14:01.029Z,18.64
2022-10-12T09:16:30.969Z,18.59
2022-10-12T09:18:57.924Z,18.55
2022-10-12T09:21:24.958Z,18.58
2022-10-12T09:23:48.868Z,18.79
2022-10-12T09:26:19.243Z,18.61
2022-10-12T09:29:24.346Z,18.82
2022-10-12T09:31:57.145Z,19.00
2022-10-12T09:34:20.067Z,19.02
2022-10-12T09:36:42.959Z,18.81
2022-10-12T09:39:13.079Z,18.72
2022-10-12T09:41:41.245Z,18.75
2022-10-12T09:44:06.415Z,19.23
2022-10-12T09:46:42.703Z,19.16
2022-10-12T09:49:05.692Z,19.00
2022-10-12T09:51:30.611Z,18.99
2022-10-12T09:53:57.692Z,19.28
2022-10-12T09:56:27.196Z,19.28
2022-10-12T09:58:53.418Z,19.22
2022-10-12T10:01:23.338Z,19.02
2022-10-12T10:03:48.303Z,18.95
2022-10-12T10:06:10.858Z,18.91
2022-10-12T10:08:44.746Z,19.24
2022-10-12T10:11:31.627Z,19.26
2022-10-12T10:13:55.703Z,19.26
2022-10-12T10:16:19.569Z,19.28
2022-10-12T10:18:55.308Z,19.20
2022-10-12T10:21:25.740Z,19.34
2022-10-12T10:24:00.555Z,19.47
2022-10-12T10:26:24.535Z,19.57
2022-10-12T10:28:50.077Z,19.79
2022-10-12T10:31:21.938Z,19.68
2022-10-12T10:33:44.659Z,19.95
2022-10-12T10:36:22.386Z,20.17
2022-10-12T10:38:59.175Z,20.32
2022-10-12T10:41:27.672Z,19.96
2022-10-12T10:43:51.311Z,20.05
2022-10-12T10:46:16.511Z,19.85
2022-10-12T10:49:02.141Z,19.85
2022-10-12T10:51:44.923Z,19.93
2022-10-12T10:54:33.662Z,20.06
2022-10-12T10:57:09.862Z,20.30
2022-10-12T10:59:41.382Z,20.36
2022-10-12T11:02:38.478Z,20.25
2022-10-12T11:05:07.216Z,20.29
2022-10-12T11:07:50.018Z,20.20
2022-10-12T11:10:22.820Z,20.37
2022-10-12T11:12:50.390Z,20.22
2022-10-12T11:15:20.832Z,19.96
2022-10-12T11:17:47.396Z,20.04
2022-10-12T11:20:31.979Z,20.32
2022-10-12T11:22:59.045Z,20.06
2022-10-12T11:25:43.495Z,20.33
2022-10-12T11:28:14.417Z,20.40
2022-10-12T11:30:43.678Z,20.60
2022-10-12T11:33:13.152Z,20.85
2022-10-12T11:35:38.318Z,21.03
2022-10-12T11:38:06.141Z,20.81
2022-10-12T11:41:00.183Z,20.58
2022-10-12T11:43:21.377Z,20.73
2022-10-12T11:45:49.635Z,20.33
2022-10-12T11:48:18.219Z,20.58
2022-10-12T11:50:46.841Z,20.51
2022-10-12T11:53:48.601Z,20.63
2022-10-12T11:56:31.463Z,20.61
2022-10-12T11:59:03.051Z,20.61
2022-10-12T12:01:33.744Z,20.73
2022-10-12T12:04:39.927Z,20.77
2022-10-12T12:07:26.663Z,20.44
2022-10-12T12:09:50.936Z,20.05
2022-10-12T12:12:26.863Z,20.29
2022-10-12T12:14:55.233Z,20.65
2022-10-12T12:17:20.431Z,21.05
2022-10-12T12:19:44.528Z,21.06
2022-10-12T12:22:10.003Z,21.02
2022-10-12T12:24:32.651Z,20.50
2022-10-12T12:26:55.230Z,20.47
2022-10-12T12:29:26.664Z,20.68
2022-10-12T12:31:59.165Z,20.74
2022-10-12T12:34:22.918Z,20.47
2022-10-12T12:36:47.779Z,20.22
2022-10-12T12:39:31.863Z,20.10
2022-10-12T12:42:01.630Z,20.27
2022-10-12T12:44:34.211Z,20.43
2022-10-12T12:46:57.075Z,20.48
2022-10-12T12:49:38.131Z,20.44
2022-10-12T12:52:01.099Z,20.33
2022-10-12T12:54:24.055Z,20.41
2022-10-12T12:57:17.141Z,20.15
2022-10-12T13:00:04.562Z,19.90
2022-10-12T13:03:01.892Z,20.13
2022-10-12T13:05:40.242Z,20.06
2022-10-12T13:08:26.881Z,20.27
2022-10-12T13:11:04.703Z,20.26
2022-10-12T13:13:42.462Z,20.17
2022-10-12T13:16:07.705Z,20.09
2022-10-12T13:18:51.376Z,20.32
2022-10-12T13:21:20.977Z,20.33
2022-10-12T13:23:46.965Z,20.47
2022-10-12T13:26:12.001Z,20.34
2022-10-12T13:28:40.217Z,20.30
2022-10-12T13:31:09.124Z,20.27
2022-10-12T13:33:38.459Z,20.26
2022-10-12T13:36:23.717Z,20.15
2022-10-12T13:38:46.339Z,19.95
2022-10-12T13:41:13.876Z,19.62
2022-10-12T13:43:44.056Z,19.58
2022-10-12T13:46:06.998Z,19.68
2022-10-12T13:48:57.720Z,19.70
2022-10-12T13:51:25.658Z,19.74
2022-10-12T13:53:48.362Z,19.95
2022-10-12T13:56:17.374Z,20.16
2022-10-12T13:58:41.103Z,20.02
2022-10-12T14:01:04.990Z,19.72
2022-10-12T14:03:36.270Z,19.82
2022-10-12T14:06:03.457Z,19.81
2022-10-12T14:08:28.046Z,19.46
2022-10-12T14:11:00.462Z,19.49
2022-10-12T14:13:33.153Z,19.33
2022-10-12T14:15:56.408Z,19.27
2022-10-12T14:18:39.210Z,18.96
2022-10-12T14:21:33.235Z,19.10
2022-10-12T14:24:08.170Z,19.13
2022-10-12T14:26:39.822Z,18.96
2022-10-12T14:29:31.555Z,18.55
2022-10-12T14:31:57.020Z,18.43
2022-10-12T14:34:39.795Z,18.31
2022-10-12T14:37:09.990Z,18.24
2022-10-12T14:39:33.406Z,18.28
2022-10-12T14:41:57.315Z,18.21
2022-10-12T14:44:22.614Z,18.26
2022-10-12T14:47:02.903Z,18.13
2022-10-12T14:49:32.532Z,18.18
2022-10-12T14:51:55.571Z,18.14
2022-10-12T14:54:18.141Z,18.37
2022-10-12T14:56:40.684Z,18.28
2022-10-12T14:59:03.496Z,18.17
2022-10-12T15:01:26.245Z,18.11
2022-10-12T15:03:49.154Z,17.96
2022-10-12T15:06:16.399Z,18.06
2022-10-12T15:08:39.183Z,18.00
2022-10-12T15:11:01.641Z,17.91
2022-10-12T15:13:24.107Z,17.86
2022-10-12T15:15:48.412Z,17.86
2022-10-12T15:18:11.306Z,17.86
2022-10-12T15:20:34.654Z,17.85
2022-10-12T15:22:58.236Z,17.91
2022-10-12T15:25:25.024Z,17.82
2022-10-12T15:27:47.741Z,17.68
2022-10-12T15:30:11.109Z,17.76
2022-10-12T15:32:33.724Z,17.80
2022-10-12T15:34:56.254Z,17.78
2022-10-12T15:37:18.846Z,17.73
2022-10-12T15:39:42.834Z,17.68
2022-10-12T15:42:05.467Z,17.55
2022-10-12T15:44:28.341Z,17.45
2022-10-12T15:46:54.535Z,17.15
2022-10-12T15:49:19.689Z,17.00
2022-10-12T15:51:47.780Z,17.04
2022-10-12T15:54:10.922Z,17.06
2022-10-12T15:56:33.512Z,16.99
2022-10-12T15:58:56.083Z,17.02
2022-10-12T16:01:20.358Z,17.00
2022-10-12T16:03:43.134Z,17.04
2022-10-12T16:06:06.388Z,16.93
2022-10-12T16:08:28.942Z,16.93
2022-10-12T16:10:51.770Z,16.94
2022-10-12T16:13:14.785Z,16.86
2022-10-12T16:15:37.487Z,16.81
2022-10-12T16:18:01.438Z,16.75
2022-10-12T16:20:24.771Z,16.69
2022-10-12T16:22:47.936Z,16.67
2022-10-12T16:25:13.049Z,16.62
2022-10-12T16:27:36.075Z,16.52
2022-10-12T16:29:59.281Z,16.46
2022-10-12T16:32:21.866Z,16.29
2022-10-12T16:34:44.554Z,16.19
2022-10-12T16:37:07.156Z,16.11
2022-10-12T16:39:29.736Z,16.14
2022-10-12T16:41:52.503Z,16.17
2022-10-12T16:44:15.168Z,16.14
2022-10-12T16:46:37.873Z,16.00
2022-10-12T16:49:00.515Z,15.96
2022-10-12T16:51:23.036Z,15.93
2022-10-12T16:53:45.892Z,15.77
2022-10-12T16:56:08.492Z,15.76
2022-10-12T16:58:31.215Z,15.86
2022-10-12T17:00:53.819Z,15.86
2022-10-12T17:03:16.537Z,15.80
2022-10-12T17:05:39.099Z,15.76
2022-10-12T17:08:02.762Z,15.73
2022-10-12T17:10:25.326Z,15.64
2022-10-12T17:12:47.989Z,15.50
2022-10-12T17:15:10.701Z,15.46
2022-10-12T17:17:33.289Z,15.49
2022-10-12T17:19:56.037Z,15.43
2022-10-12T17:22:18.966Z,15.46
2022-10-12T17:24:42.807Z,15.50
2022-10-12T17:27:07.500Z,15.47
2022-10-12T17:29:31.739Z,15.36
2022-10-12T17:31:55.115Z,15.43
2022-10-12T17:34:22.585Z,15.42
2022-10-12T17:36:46.152Z,15.45
2022-10-12T17:39:08.647Z,15.35
2022-10-12T17:41:31.230Z,15.29
2022-10-12T17:43:53.731Z,15.38
2022-10-12T17:46:21.501Z,15.25
2022-10-12T17:48:45.303Z,15.15
2022-10-12T17:51:10.075Z,15.09
2022-10-12T17:53:32.693Z,15.08
2022-10-12T17:56:00.381Z,14.97
2022-10-12T17:58:22.970Z,14.92
2022-10-12T18:00:45.579Z,14.91
2022-10-12T18:03:08.154Z,14.87
2022-10-12T18:05:30.663Z,14.84
2022-10-12T18:08:13.521Z,14.80
2022-10-12T18:10:40.819Z,14.77
2022-10-12T18:13:03.331Z,14.66
2022-10-12T18:15:25.995Z,14.60
2022-10-12T18:17:50.027Z,14.47
2022-10-12T18:20:13.068Z,14.47
2022-10-12T18:22:35.777Z,14.44
2022-10-12T18:24:59.734Z,14.43
2022-10-12T18:27:22.258Z,14.40
2022-10-12T18:29:45.055Z,14.30
2022-10-12T18:32:08.254Z,14.30
2022-10-12T18:34:35.658Z,14.25
2022-10-12T18:36:59.155Z,14.13
2022-10-12T18:39:21.923Z,14.13
2022-10-12T18:41:44.557Z,14.06
2022-10-12T18:44:07.393Z,14.04
2022-10-12T18:46:32.435Z,14.02
2022-10-12T18:48:55.996Z,13.92
2022-10-12T18:51:30.492Z,13.84
2022-10-12T18:53:53.073Z,13.86
2022-10-12T18:56:16.957Z,13.81
2022-10-12T18:58:39.829Z,13.63
2022-10-12T19:01:02.399Z,13.57
2022-10-12T19:03:25.814Z,13.51
2022-10-12T19:05:48.299Z,13.44
2022-10-12T19:08:11.007Z,13.39
2022-10-12T19:10:33.654Z,13.37
2022-10-12T19:12:56.239Z,13.30
2022-10-12T19:15:18.798Z,13.27
2022-10-12T19:17:41.454Z,13.23
2022-10-12T19:20:04.428Z,13.27
2022-10-12T19:22:29.481Z,13.19
2022-10-12T19:24:53.639Z,13.16
2022-10-12T19:27:16.406Z,13.22
2022-10-12T19:29:42.377Z,13.19
2022-10-12T19:32:08.174Z,13.24
2022-10-12T19:34:30.879Z,13.27
2022-10-12T19:36:53.726Z,13.23
2022-10-12T19:39:22.362Z,13.23
2022-10-12T19:41:45.924Z,13.20
2022-10-12T19:44:09.848Z,13.19
2022-10-12T19:46:32.756Z,13.22
2022-10-12T19:48:56.972Z,13.19
2022-10-12T19:51:21.355Z,13.20
2022-10-12T19:53:44.185Z,13.19
2022-10-12T19:56:14.161Z,13.20
2022-10-12T19:58:38.050Z,13.19
2022-10-12T20:01:09.311Z,13.17
2022-10-12T20:03:32.396Z,13.09
2022-10-12T20:05:55.087Z,13.06
2022-10-12T20:08:18.341Z,13.06
2022-10-12T20:11:01.379Z,13.05
2022-10-12T20:13:23.890Z,12.93
2022-10-12T20:15:46.402Z,12.98
2022-10-12T20:18:09.132Z,12.91
2022-10-12T20:20:31.710Z,12.93
2022-10-12T20:22:54.338Z,12.93
2022-10-12T20:25:16.975Z,12.89
2022-10-12T20:27:39.668Z,12.85
2022-10-12T20:30:02.219Z,12.92
2022-10-12T20:32:24.979Z,12.93
2022-10-12T20:34:52.216Z,12.91
2022-10-12T20:37:16.880Z,12.84
2022-10-12T20:39:39.592Z,12.88
2022-10-12T20:42:02.241Z,12.91
2022-10-12T20:44:24.749Z,12.79
2022-10-12T20:46:50.791Z,12.77
2022-10-12T20:49:13.327Z,12.77
2022-10-12T20:51:36.925Z,12.78
2022-10-12T20:54:00.963Z,12.82
2022-10-12T20:56:23.529Z,12.77
2022-10-12T20:58:47.141Z,12.71
2022-10-12T21:01:12.854Z,12.62
2022-10-12T21:03:36.579Z,12.57
2022-10-12T21:06:07.435Z,12.51
2022-10-12T21:08:29.952Z,12.38
2022-10-12T21:10:52.570Z,12.34
2022-10-12T21:13:15.156Z,12.38
2022-10-12T21:15:37.619Z,12.30
2022-10-12T21:18:00.210Z,12.17
2022-10-12T21:20:22.733Z,12.06
2022-10-12T21:22:46.058Z,12.00
2022-10-12T21:25:08.805Z,11.96
2022-10-12T21:27:31.471Z,11.89
2022-10-12T21:29:54.038Z,12.00
2022-10-12T21:32:16.896Z,12.07
2022-10-12T21:34:39.507Z,12.13
2022-10-12T21:37:02.037Z,12.24
2022-10-12T21:39:24.915Z,12.23
2022-10-12T21:41:47.708Z,12.21
2022-10-12T21:44:11.192Z,12.20
2022-10-12T21:46:35.536Z,12.21
2022-10-12T21:48:58.936Z,12.13
2022-10-12T21:51:23.239Z,12.12
2022-10-12T21:53:45.672Z,12.02
2022-10-12T21:56:11.790Z,12.06
2022-10-12T21:58:34.634Z,12.09
2022-10-12T22:01:09.235Z,12.04
2022-10-12T22:03:31.858Z,11.99
2022-10-12T22:05:54.420Z,11.85
2022-10-12T22:08:16.962Z,11.78
2022-10-12T22:10:39.932Z,11.69
2022-10-12T22:13:02.889Z,11.61
2022-10-12T22:15:25.303Z,11.52
2022-10-12T22:17:47.923Z,11.57
2022-10-12T22:20:12.183Z,11.55
2022-10-12T22:22:40.297Z,11.51
2022-10-12T22:25:02.995Z,11.50
2022-10-12T22:27:27.416Z,11.48
2022-10-12T22:29:50.184Z,11.54
2022-10-12T22:32:12.794Z,11.50
2022-10-12T22:34:35.237Z,11.54
2022-10-12T22:36:57.807Z,11.48
2022-10-12T22:39:20.368Z,11.44
2022-10-12T22:41:43.523Z,11.37
2022-10-12T22:44:06.111Z,11.32
2022-10-12T22:46:28.588Z,11.30
2022-10-12T22:48:53.354Z,11.37
2022-10-12T22:51:20.425Z,11.31
2022-10-12T22:53:43.024Z,11.27
2022-10-12T22:56:13.729Z,11.23
2022-10-12T22:58:36.398Z,11.20
2022-10-12T23:01:02.108Z,11.23
2022-10-12T23:03:29.350Z,11.24
2022-10-12T23:05:52.058Z,11.26
2022-10-12T23:08:15.220Z,11.31
2022-10-12T23:10:38.008Z,11.30
2022-10-12T23:13:00.676Z,11.31
2022-10-12T23:15:23.215Z,11.27
2022-10-12T23:17:46.165Z,11.16
2022-10-12T23:20:09.702Z,11.10
2022-10-12T23:22:32.244Z,11.14
2022-10-12T23:24:54.717Z,11.18
2022-10-12T23:27:18.056Z,11.20
2022-10-12T23:29:40.747Z,11.21
2022-10-12T23:32:03.977Z,11.11
2022-10-12T23:34:26.754Z,11.10
2022-10-12T23:36:49.368Z,11.07
2022-10-12T23:39:13.251Z,11.06
2022-10-12T23:41:35.859Z,11.08
2022-10-12T23:43:58.651Z,11.13
2022-10-12T23:46:21.335Z,11.16
2022-10-12T23:48:43.922Z,11.13
2022-10-12T23:51:13.623Z,11.18
2022-10-12T23:53:37.562Z,11.21
2022-10-12T23:56:00.226Z,11.26
2022-10-12T23:58:22.979Z,11.34
